Ragley, Louisiana
Current Conditions -  °F | °C
As of 4:35 PM on Tuesday 21 Oct 2014 (Local Time) from K5R8 Reporting Station
Clear Clear  
Wind Chill: 78°   Ceiling: Unl
Heat Index: 80°   Visibility: 10mi
Dew Point: 61°   Wind: 5mph
Humidity: 55%   Direction: 20°NNE
Pressure: 30"   Gusts: NA
Location:  30.51°N, 93.23°W
Report Text: K5R8 212135Z AUTO 02004KT 10SM CLR 26/16 A3000 RMK AO2 T02580160
Loading
Personal Weather Stations






























Interactive Weather Map
Tropical Storm Tracking
New forecast layout! Learn more

10-Day Weather Forecast

Advertisements
Track Severe Weather on mobile